createdAt,value
2018-06-05T00:00:06.724Z,0.00
2018-06-05T00:01:06.742Z,0.00
2018-06-05T00:02:06.763Z,0.00
2018-06-05T00:03:06.787Z,0.00
2018-06-05T00:04:06.808Z,0.00
2018-06-05T00:05:06.842Z,0.00
2018-06-05T00:06:06.852Z,0.00
2018-06-05T00:07:06.866Z,0.00
2018-06-05T00:08:06.890Z,0.00
2018-06-05T00:09:06.923Z,0.00
2018-06-05T00:10:06.928Z,0.00
2018-06-05T00:11:06.949Z,0.00
2018-06-05T00:12:06.973Z,0.00
2018-06-05T00:13:06.995Z,0.00
2018-06-05T00:14:07.015Z,0.00
2018-06-05T00:15:07.031Z,0.00
2018-06-05T00:16:07.089Z,0.00
2018-06-05T00:17:07.116Z,0.00
2018-06-05T00:18:07.095Z,0.00
2018-06-05T00:19:07.117Z,0.00
2018-06-05T00:20:07.147Z,0.00
2018-06-05T00:21:07.170Z,0.00
2018-06-05T00:22:07.186Z,0.00
2018-06-05T00:23:07.208Z,0.00
2018-06-05T00:24:07.228Z,0.00
2018-06-05T00:25:07.245Z,0.00
2018-06-05T00:26:07.275Z,0.00
2018-06-05T00:27:07.300Z,0.00
2018-06-05T00:28:07.312Z,0.00
2018-06-05T00:29:07.349Z,0.00
2018-06-05T00:30:07.369Z,0.00
2018-06-05T00:31:07.376Z,0.00
2018-06-05T00:32:07.391Z,0.00
2018-06-05T00:33:07.450Z,0.00
2018-06-05T00:34:07.457Z,0.00
2018-06-05T00:35:07.472Z,0.00
2018-06-05T00:36:07.480Z,0.00
2018-06-05T00:37:07.505Z,0.00
2018-06-05T00:38:07.560Z,0.00
2018-06-05T00:39:07.538Z,0.00
2018-06-05T00:40:07.568Z,0.00
2018-06-05T00:41:07.576Z,0.00
2018-06-05T00:42:07.627Z,0.00
2018-06-05T00:43:07.619Z,0.00
2018-06-05T00:44:07.641Z,0.00
2018-06-05T00:45:07.660Z,0.00
2018-06-05T00:46:07.681Z,0.00
2018-06-05T00:47:07.726Z,0.00
2018-06-05T00:48:07.736Z,0.00
2018-06-05T00:49:07.755Z,0.00
2018-06-05T00:50:07.778Z,0.00
2018-06-05T00:51:07.793Z,0.00
2018-06-05T00:52:07.817Z,0.00
2018-06-05T00:53:07.835Z,0.00
2018-06-05T00:54:07.864Z,0.00
2018-06-05T00:55:07.886Z,0.00
2018-06-05T00:56:07.900Z,0.00
2018-06-05T00:57:07.939Z,0.00
2018-06-05T00:58:07.951Z,0.00
2018-06-05T00:59:07.992Z,0.00
2018-06-05T01:00:08.001Z,0.00
2018-06-05T01:01:07.999Z,0.00
2018-06-05T01:02:08.024Z,0.00
2018-06-05T01:03:08.053Z,0.00
2018-06-05T01:04:08.065Z,0.00
2018-06-05T01:05:08.098Z,0.00
2018-06-05T01:06:08.114Z,0.00
2018-06-05T01:07:08.131Z,0.00
2018-06-05T01:08:08.147Z,0.00
2018-06-05T01:09:08.171Z,0.00
2018-06-05T01:10:08.187Z,0.00
2018-06-05T01:11:08.222Z,0.00
2018-06-05T01:12:08.241Z,0.00
2018-06-05T01:13:08.256Z,0.00
2018-06-05T01:14:08.297Z,0.00
2018-06-05T01:15:08.324Z,0.00
2018-06-05T01:16:08.338Z,0.00
2018-06-05T01:17:08.342Z,0.00
2018-06-05T01:18:08.367Z,0.00
2018-06-05T01:19:08.385Z,0.00
2018-06-05T01:20:08.414Z,0.00
2018-06-05T01:21:08.426Z,0.00
2018-06-05T01:22:08.451Z,0.00
2018-06-05T01:23:08.491Z,0.00
2018-06-05T01:24:08.492Z,0.00
2018-06-05T01:25:08.537Z,0.00
2018-06-05T01:26:08.530Z,0.00
2018-06-05T01:27:08.551Z,0.00
2018-06-05T01:28:08.581Z,0.00
2018-06-05T01:29:08.610Z,0.00
2018-06-05T01:30:08.703Z,0.00
2018-06-05T01:31:08.643Z,0.00
2018-06-05T01:32:08.661Z,0.00
2018-06-05T01:33:08.681Z,0.00
2018-06-05T01:34:08.711Z,0.00
2018-06-05T01:35:08.733Z,0.00
2018-06-05T01:36:08.745Z,0.00
2018-06-05T01:37:08.776Z,0.00
2018-06-05T01:38:08.791Z,0.00
2018-06-05T01:39:08.817Z,0.00
2018-06-05T01:40:08.839Z,0.00
2018-06-05T01:41:08.861Z,0.00
2018-06-05T01:42:08.874Z,0.00
2018-06-05T01:43:08.886Z,0.00
2018-06-05T01:44:08.914Z,0.00
2018-06-05T01:45:08.934Z,0.00
2018-06-05T01:46:08.961Z,0.00
2018-06-05T01:47:08.989Z,0.00
2018-06-05T01:48:09.012Z,0.00
2018-06-05T01:49:09.037Z,0.00
2018-06-05T01:50:09.058Z,0.00
2018-06-05T01:51:09.085Z,0.00
2018-06-05T01:52:09.082Z,0.00
2018-06-05T01:53:09.105Z,0.00
2018-06-05T01:54:09.119Z,0.00
2018-06-05T01:55:09.159Z,0.00
2018-06-05T01:56:09.184Z,0.00
2018-06-05T01:57:09.219Z,0.00
2018-06-05T01:58:09.218Z,0.00
2018-06-05T01:59:09.258Z,0.00
2018-06-05T02:00:09.281Z,0.00
2018-06-05T02:01:09.273Z,0.00
2018-06-05T02:02:09.290Z,0.00
2018-06-05T02:03:09.326Z,0.00
2018-06-05T02:04:09.337Z,0.00
2018-06-05T02:05:09.356Z,0.00
2018-06-05T02:06:09.386Z,0.00
2018-06-05T02:07:09.396Z,0.00
2018-06-05T02:08:09.445Z,0.00
2018-06-05T02:09:09.440Z,0.00
2018-06-05T02:10:09.457Z,0.00
2018-06-05T02:11:09.502Z,0.00
2018-06-05T02:12:09.499Z,0.00
2018-06-05T02:13:09.522Z,0.00
2018-06-05T02:14:09.547Z,0.00
2018-06-05T02:15:09.573Z,0.00
2018-06-05T02:16:09.583Z,0.00
2018-06-05T02:17:09.619Z,0.00
2018-06-05T02:18:09.628Z,0.00
2018-06-05T02:19:09.648Z,0.00
2018-06-05T02:20:09.662Z,0.00
2018-06-05T02:21:09.687Z,0.00
2018-06-05T02:22:09.722Z,0.00
2018-06-05T02:23:09.747Z,0.00
2018-06-05T02:24:09.753Z,0.00
2018-06-05T02:25:09.772Z,0.00
2018-06-05T02:26:09.792Z,0.00
2018-06-05T02:27:09.814Z,0.00
2018-06-05T02:28:09.849Z,0.00
2018-06-05T02:29:09.882Z,0.00
2018-06-05T02:30:09.911Z,0.00
2018-06-05T02:31:09.905Z,0.00
2018-06-05T02:32:09.943Z,0.00
2018-06-05T02:33:09.966Z,0.00
2018-06-05T02:34:09.970Z,0.00
2018-06-05T02:35:09.988Z,0.00
2018-06-05T02:36:10.005Z,0.00
2018-06-05T02:37:10.025Z,0.00
2018-06-05T02:38:10.063Z,0.00
2018-06-05T02:39:10.075Z,0.00
2018-06-05T02:40:10.093Z,0.00
2018-06-05T02:41:10.112Z,0.00
2018-06-05T02:42:10.128Z,0.00
2018-06-05T02:43:10.182Z,0.00
2018-06-05T02:44:10.178Z,0.00
2018-06-05T02:45:10.190Z,0.00
2018-06-05T02:46:10.228Z,0.00
2018-06-05T02:47:10.235Z,0.00
2018-06-05T02:48:10.258Z,0.00
2018-06-05T02:49:10.282Z,0.00
2018-06-05T02:50:10.300Z,0.00
2018-06-05T02:51:10.368Z,0.00
2018-06-05T02:52:10.342Z,0.00
2018-06-05T02:53:10.361Z,0.00
2018-06-05T02:54:10.416Z,0.00
2018-06-05T02:55:10.407Z,0.00
2018-06-05T02:56:10.422Z,0.00
2018-06-05T02:57:10.445Z,0.00
2018-06-05T02:58:10.467Z,0.00
2018-06-05T02:59:10.488Z,0.00
2018-06-05T03:00:10.510Z,0.00
2018-06-05T03:01:10.531Z,0.00
2018-06-05T03:02:10.560Z,0.00
2018-06-05T03:03:10.571Z,0.00
2018-06-05T03:04:10.607Z,0.00
2018-06-05T03:05:10.612Z,0.00
2018-06-05T03:06:10.630Z,0.00
2018-06-05T03:07:10.644Z,0.00
2018-06-05T03:08:10.680Z,0.00
2018-06-05T03:09:10.691Z,0.00
2018-06-05T03:10:10.711Z,0.00
2018-06-05T03:11:10.744Z,0.00
2018-06-05T03:12:10.777Z,0.00
2018-06-05T03:13:10.774Z,0.00
2018-06-05T03:14:10.822Z,0.00
2018-06-05T03:15:10.826Z,0.00
2018-06-05T03:16:10.848Z,0.00
2018-06-05T03:17:10.862Z,0.00
2018-06-05T03:18:10.887Z,0.00
2018-06-05T03:19:10.896Z,0.00
2018-06-05T03:20:10.919Z,0.00
2018-06-05T03:21:10.942Z,0.00
2018-06-05T03:22:10.958Z,0.00
2018-06-05T03:23:10.997Z,5.63
2018-06-05T03:24:11.001Z,5.63
2018-06-05T03:25:11.034Z,5.63
2018-06-05T03:26:11.042Z,5.63
2018-06-05T03:27:11.065Z,5.63
2018-06-05T03:28:11.086Z,5.63
2018-06-05T03:29:11.109Z,5.63
2018-06-05T03:30:11.149Z,5.63
2018-06-05T03:31:11.153Z,5.63
2018-06-05T03:32:11.167Z,5.63
2018-06-05T03:33:11.189Z,5.63
2018-06-05T03:34:11.210Z,5.63
2018-06-05T03:35:11.237Z,5.63
2018-06-05T03:36:11.257Z,5.63
2018-06-05T03:37:11.278Z,5.63
2018-06-05T03:38:11.296Z,5.63
2018-06-05T03:39:11.314Z,5.63
2018-06-05T03:40:11.346Z,11.25
2018-06-05T03:41:11.356Z,11.25
2018-06-05T03:42:11.384Z,11.25
2018-06-05T03:43:11.407Z,11.25
2018-06-05T03:44:11.417Z,11.25
2018-06-05T03:45:11.436Z,11.25
2018-06-05T03:46:11.459Z,11.25
2018-06-05T03:47:11.476Z,11.25
2018-06-05T03:48:11.496Z,11.25
2018-06-05T03:49:11.517Z,11.25
2018-06-05T03:50:11.570Z,16.88
2018-06-05T03:51:11.623Z,16.88
2018-06-05T03:52:11.611Z,16.88
2018-06-05T03:53:11.606Z,16.88
2018-06-05T03:54:11.637Z,16.88
2018-06-05T03:55:11.644Z,16.88
2018-06-05T03:56:11.662Z,16.88
2018-06-05T03:57:11.740Z,16.88
2018-06-05T03:58:11.704Z,16.88
2018-06-05T03:59:11.725Z,16.88
2018-06-05T04:00:11.766Z,16.88
2018-06-05T04:01:11.764Z,16.88
2018-06-05T04:02:11.789Z,16.88
2018-06-05T04:03:11.811Z,16.88
2018-06-05T04:04:11.827Z,22.50
2018-06-05T04:05:11.849Z,22.50
2018-06-05T04:06:11.868Z,22.50
2018-06-05T04:07:11.895Z,22.50
2018-06-05T04:08:11.917Z,22.50
2018-06-05T04:09:11.941Z,22.50
2018-06-05T04:10:11.948Z,22.50
2018-06-05T04:11:11.969Z,22.50
2018-06-05T04:12:11.995Z,22.50
2018-06-05T04:13:12.033Z,22.50
2018-06-05T04:14:12.045Z,22.50
2018-06-05T04:15:12.056Z,22.50
2018-06-05T04:16:12.079Z,22.50
2018-06-05T04:17:12.117Z,28.13
2018-06-05T04:18:12.126Z,28.13
2018-06-05T04:19:12.140Z,28.13
2018-06-05T04:20:12.164Z,28.13
2018-06-05T04:21:12.198Z,28.13
2018-06-05T04:22:12.198Z,28.13
2018-06-05T04:23:12.233Z,28.13
2018-06-05T04:24:12.238Z,33.75
2018-06-05T04:25:12.261Z,33.75
2018-06-05T04:26:12.284Z,33.75
2018-06-05T04:27:12.353Z,33.75
2018-06-05T04:28:12.355Z,33.75
2018-06-05T04:29:12.344Z,33.75
2018-06-05T04:30:12.378Z,33.75
2018-06-05T04:31:12.393Z,33.75
2018-06-05T04:32:12.415Z,33.75
2018-06-05T04:33:12.437Z,39.38
2018-06-05T04:34:12.453Z,39.38
2018-06-05T04:35:12.467Z,39.38
2018-06-05T04:36:12.530Z,39.38
2018-06-05T04:37:12.525Z,45.00
2018-06-05T04:38:12.535Z,45.00
2018-06-05T04:39:12.557Z,45.00
2018-06-05T04:40:12.588Z,45.00
2018-06-05T04:41:12.597Z,45.00
2018-06-05T04:42:12.622Z,45.00
2018-06-05T04:43:12.630Z,50.63
2018-06-05T04:44:12.655Z,50.63
2018-06-05T04:45:12.677Z,50.63
2018-06-05T04:46:12.695Z,50.63
2018-06-05T04:47:12.713Z,50.63
2018-06-05T04:48:12.740Z,50.63
2018-06-05T04:49:12.763Z,50.63
2018-06-05T04:50:12.785Z,50.63
2018-06-05T04:51:12.805Z,50.63
2018-06-05T04:52:12.836Z,56.25
2018-06-05T04:53:12.884Z,56.25
2018-06-05T04:54:12.859Z,56.25
2018-06-05T04:55:12.878Z,56.25
2018-06-05T04:56:12.901Z,56.25
2018-06-05T04:57:12.920Z,56.25
2018-06-05T04:58:12.937Z,56.25
2018-06-05T04:59:12.984Z,61.88
2018-06-05T05:00:12.980Z,61.88
2018-06-05T05:01:13.000Z,61.88
2018-06-05T05:02:13.021Z,61.88
2018-06-05T05:03:13.043Z,61.88
2018-06-05T05:04:13.063Z,61.88
2018-06-05T05:05:13.119Z,61.88
2018-06-05T05:06:13.111Z,67.50
2018-06-05T05:07:13.122Z,67.50
2018-06-05T05:08:13.143Z,67.50
2018-06-05T05:09:13.165Z,73.13
2018-06-05T05:10:13.191Z,73.13
2018-06-05T05:11:13.211Z,73.13
2018-06-05T05:12:13.224Z,73.13
2018-06-05T05:13:13.248Z,73.13
2018-06-05T05:14:13.267Z,78.75
2018-06-05T05:15:13.293Z,78.75
2018-06-05T05:16:13.326Z,78.75
2018-06-05T05:17:13.351Z,78.75
2018-06-05T05:18:13.361Z,84.38
2018-06-05T05:19:13.379Z,84.38
2018-06-05T05:20:13.397Z,84.38
2018-06-05T05:21:13.427Z,84.38
2018-06-05T05:22:13.444Z,84.38
2018-06-05T05:23:13.463Z,84.38
2018-06-05T05:24:13.480Z,84.38
2018-06-05T05:25:13.506Z,84.38
2018-06-05T05:26:13.528Z,84.38
2018-06-05T05:27:13.544Z,84.38
2018-06-05T05:28:13.563Z,90.00
2018-06-05T05:29:13.595Z,90.00
2018-06-05T05:30:13.606Z,90.00
2018-06-05T05:31:13.622Z,90.00
2018-06-05T05:32:13.661Z,90.00
2018-06-05T05:33:13.665Z,90.00
2018-06-05T05:34:13.697Z,95.63
2018-06-05T05:35:13.729Z,95.63
2018-06-05T05:36:13.736Z,95.63
2018-06-05T05:37:13.746Z,95.63
2018-06-05T05:38:13.772Z,95.63
2018-06-05T05:39:13.831Z,95.63
2018-06-05T05:40:13.829Z,95.63
2018-06-05T05:41:13.837Z,95.63
2018-06-05T05:42:13.858Z,95.63
2018-06-05T05:43:13.901Z,95.63
2018-06-05T05:44:13.895Z,90.00
2018-06-05T05:45:13.927Z,90.00
2018-06-05T05:46:13.942Z,95.63
2018-06-05T05:47:13.961Z,95.63
2018-06-05T05:48:13.981Z,95.63
2018-06-05T05:49:14.023Z,95.63
2018-06-05T05:50:14.039Z,90.00
2018-06-05T05:51:14.067Z,90.00
2018-06-05T05:52:14.071Z,90.00
2018-06-05T05:53:14.109Z,95.63
2018-06-05T05:54:14.110Z,95.63
2018-06-05T05:55:14.149Z,95.63
2018-06-05T05:56:14.152Z,95.63
2018-06-05T05:57:14.186Z,95.63
2018-06-05T05:58:14.201Z,95.63
2018-06-05T05:59:14.217Z,101.25
2018-06-05T06:00:14.264Z,101.25
2018-06-05T06:01:14.255Z,101.25
2018-06-05T06:02:14.391Z,106.88
2018-06-05T06:03:14.296Z,106.88
2018-06-05T06:04:14.318Z,106.88
2018-06-05T06:05:14.336Z,106.88
2018-06-05T06:06:14.363Z,106.88
2018-06-05T06:07:14.396Z,112.50
2018-06-05T06:08:14.410Z,112.50
2018-06-05T06:09:14.431Z,112.50
2018-06-05T06:10:14.470Z,112.50
2018-06-05T06:11:14.470Z,118.13
2018-06-05T06:12:14.493Z,118.13
2018-06-05T06:13:14.521Z,123.75
2018-06-05T06:14:14.531Z,129.38
2018-06-05T06:15:14.568Z,135.00
2018-06-05T06:16:14.584Z,135.00
2018-06-05T06:17:14.614Z,135.00
2018-06-05T06:18:14.619Z,135.00
2018-06-05T06:19:14.638Z,135.00
2018-06-05T06:20:14.658Z,135.00
2018-06-05T06:21:14.677Z,135.00
2018-06-05T06:22:14.699Z,135.00
2018-06-05T06:23:14.721Z,135.00
2018-06-05T06:24:14.759Z,135.00
2018-06-05T06:25:14.816Z,140.63
2018-06-05T06:26:14.784Z,140.63
2018-06-05T06:27:14.805Z,146.25
2018-06-05T06:28:14.837Z,146.25
2018-06-05T06:29:14.853Z,146.25
2018-06-05T06:30:14.864Z,146.25
2018-06-05T06:31:14.903Z,146.25
2018-06-05T06:32:14.906Z,146.25
2018-06-05T06:33:14.929Z,140.63
2018-06-05T06:34:14.954Z,140.63
2018-06-05T06:35:14.973Z,135.00
2018-06-05T06:36:14.998Z,140.63
2018-06-05T06:37:15.012Z,140.63
2018-06-05T06:38:15.029Z,140.63
2018-06-05T06:39:15.083Z,140.63
2018-06-05T06:40:15.082Z,140.63
2018-06-05T06:41:15.111Z,140.63
2018-06-05T06:42:15.118Z,135.00
2018-06-05T06:43:15.146Z,135.00
2018-06-05T06:44:15.162Z,129.38
2018-06-05T06:45:15.185Z,135.00
2018-06-05T06:46:15.204Z,135.00
2018-06-05T06:47:15.219Z,135.00
2018-06-05T06:48:15.240Z,135.00
2018-06-05T06:49:15.261Z,135.00
2018-06-05T06:50:15.275Z,135.00
2018-06-05T06:51:15.304Z,135.00
2018-06-05T06:52:15.324Z,135.00
2018-06-05T06:53:15.344Z,140.63
2018-06-05T06:54:15.362Z,140.63
2018-06-05T06:55:15.406Z,146.25
2018-06-05T06:56:15.418Z,146.25
2018-06-05T06:57:15.429Z,157.50
2018-06-05T06:58:15.450Z,157.50
2018-06-05T06:59:15.510Z,157.50
2018-06-05T07:00:15.501Z,157.50
2018-06-05T07:01:15.511Z,163.13
2018-06-05T07:02:15.578Z,163.13
2018-06-05T07:03:15.553Z,163.13
2018-06-05T07:04:15.569Z,163.13
2018-06-05T07:05:15.596Z,168.75
2018-06-05T07:06:15.610Z,174.38
2018-06-05T07:07:15.629Z,168.75
2018-06-05T07:08:15.664Z,174.38
2018-06-05T07:09:15.681Z,168.75
2018-06-05T07:10:15.704Z,174.38
2018-06-05T07:11:15.721Z,180.00
2018-06-05T07:12:15.750Z,180.00
2018-06-05T07:13:15.764Z,180.00
2018-06-05T07:14:15.773Z,180.00
2018-06-05T07:15:15.797Z,185.63
2018-06-05T07:16:15.817Z,191.25
2018-06-05T07:17:15.839Z,191.25
2018-06-05T07:18:15.892Z,196.88
2018-06-05T07:19:15.888Z,196.88
2018-06-05T07:20:15.902Z,202.50
2018-06-05T07:21:15.929Z,202.50
2018-06-05T07:22:15.969Z,208.13
2018-06-05T07:23:15.987Z,213.75
2018-06-05T07:24:15.989Z,219.38
2018-06-05T07:25:16.015Z,219.38
2018-06-05T07:26:16.041Z,225.00
2018-06-05T07:27:16.044Z,225.00
2018-06-05T07:28:16.073Z,225.00
2018-06-05T07:29:16.092Z,225.00
2018-06-05T07:30:16.182Z,219.38
2018-06-05T07:31:16.160Z,213.75
2018-06-05T07:32:16.159Z,208.13
2018-06-05T07:33:16.203Z,202.50
2018-06-05T07:34:16.190Z,202.50
2018-06-05T07:35:16.212Z,196.88
2018-06-05T07:36:16.272Z,191.25
2018-06-05T07:37:16.253Z,185.63
2018-06-05T07:38:16.279Z,185.63
2018-06-05T07:39:16.316Z,191.25
2018-06-05T07:40:16.317Z,191.25
2018-06-05T07:41:16.335Z,191.25
2018-06-05T07:42:16.360Z,191.25
2018-06-05T07:43:16.388Z,191.25
2018-06-05T07:44:16.441Z,191.25
2018-06-05T07:45:16.421Z,196.88
2018-06-05T07:46:16.446Z,202.50
2018-06-05T07:47:16.463Z,213.75
2018-06-05T07:48:16.490Z,219.38
2018-06-05T07:49:16.510Z,219.38
2018-06-05T07:50:16.561Z,225.00
2018-06-05T07:51:16.547Z,225.00
2018-06-05T07:52:16.573Z,225.00
2018-06-05T07:53:16.596Z,225.00
2018-06-05T07:54:16.607Z,225.00
2018-06-05T07:55:16.631Z,230.63
2018-06-05T07:56:16.662Z,236.25
2018-06-05T07:57:16.672Z,236.25
2018-06-05T07:58:16.686Z,236.25
2018-06-05T07:59:16.728Z,241.88
2018-06-05T08:00:16.734Z,247.50
2018-06-05T08:01:16.752Z,247.50
2018-06-05T08:02:16.780Z,247.50
2018-06-05T08:03:16.796Z,241.88
2018-06-05T08:04:16.831Z,241.88
2018-06-05T08:05:16.852Z,241.88
2018-06-05T08:06:16.862Z,241.88
2018-06-05T08:07:16.882Z,241.88
2018-06-05T08:08:16.903Z,247.50
2018-06-05T08:09:16.925Z,258.75
2018-06-05T08:10:16.943Z,264.38
2018-06-05T08:11:16.975Z,275.63
2018-06-05T08:12:16.985Z,281.25
2018-06-05T08:13:17.013Z,286.88
2018-06-05T08:14:17.026Z,286.88
2018-06-05T08:15:17.071Z,281.25
2018-06-05T08:16:17.080Z,281.25
2018-06-05T08:17:17.101Z,281.25
2018-06-05T08:18:17.114Z,281.25
2018-06-05T08:19:17.148Z,286.88
2018-06-05T08:20:17.163Z,292.50
2018-06-05T08:21:17.179Z,292.50
2018-06-05T08:22:17.207Z,292.50
2018-06-05T08:23:17.245Z,292.50
2018-06-05T08:24:17.259Z,292.50
2018-06-05T08:25:17.262Z,298.13
2018-06-05T08:26:17.283Z,298.13
2018-06-05T08:27:17.315Z,303.75
2018-06-05T08:28:17.329Z,309.38
2018-06-05T08:29:17.356Z,315.00
2018-06-05T08:30:17.384Z,326.25
2018-06-05T08:31:17.400Z,331.88
2018-06-05T08:32:17.429Z,331.88
2018-06-05T08:33:17.438Z,326.25
2018-06-05T08:34:17.462Z,320.63
2018-06-05T08:35:17.476Z,309.38
2018-06-05T08:36:17.514Z,309.38
2018-06-05T08:37:17.517Z,303.75
2018-06-05T08:38:17.548Z,303.75
2018-06-05T08:39:17.561Z,303.75
2018-06-05T08:40:17.589Z,303.75
2018-06-05T08:41:17.615Z,309.38
2018-06-05T08:42:17.629Z,309.38
2018-06-05T08:43:17.647Z,315.00
2018-06-05T08:44:17.670Z,315.00
2018-06-05T08:45:17.761Z,320.63
2018-06-05T08:46:17.720Z,320.63
2018-06-05T08:47:17.751Z,315.00
2018-06-05T08:48:17.760Z,309.38
2018-06-05T08:49:17.785Z,309.38
2018-06-05T08:50:17.793Z,309.38
2018-06-05T08:51:17.837Z,309.38
2018-06-05T08:52:17.847Z,309.38
2018-06-05T08:53:17.868Z,309.38
2018-06-05T08:54:17.918Z,309.38
2018-06-05T08:55:17.909Z,303.75
2018-06-05T08:56:17.938Z,303.75
2018-06-05T08:57:17.971Z,303.75
2018-06-05T08:58:17.978Z,303.75
2018-06-05T08:59:18.005Z,309.38
2018-06-05T09:00:18.026Z,320.63
2018-06-05T09:01:18.050Z,331.88
2018-06-05T09:02:18.056Z,331.88
2018-06-05T09:03:18.102Z,343.13
2018-06-05T09:04:18.118Z,348.75
2018-06-05T09:05:18.184Z,354.38
2018-06-05T09:06:18.149Z,360.00
2018-06-05T09:07:18.189Z,360.00
2018-06-05T09:08:18.196Z,360.00
2018-06-05T09:09:18.214Z,354.38
2018-06-05T09:10:18.235Z,348.75
2018-06-05T09:11:18.267Z,343.13
2018-06-05T09:12:18.287Z,343.13
2018-06-05T09:13:18.305Z,343.13
2018-06-05T09:14:18.332Z,337.50
2018-06-05T09:15:18.347Z,337.50
2018-06-05T09:16:18.368Z,343.13
2018-06-05T09:17:18.391Z,343.13
2018-06-05T09:18:18.416Z,348.75
2018-06-05T09:19:18.439Z,354.38
2018-06-05T09:20:18.456Z,354.38
2018-06-05T09:21:18.481Z,360.00
2018-06-05T09:22:18.503Z,365.63
2018-06-05T09:23:18.526Z,371.25
2018-06-05T09:24:18.535Z,376.88
2018-06-05T09:25:18.560Z,376.88
2018-06-05T09:26:18.579Z,376.88
2018-06-05T09:27:18.603Z,382.50
2018-06-05T09:28:18.650Z,393.75
2018-06-05T09:29:18.660Z,405.00
2018-06-05T09:30:18.702Z,410.63
2018-06-05T09:31:18.699Z,421.88
2018-06-05T09:32:18.714Z,433.13
2018-06-05T09:33:18.743Z,438.75
2018-06-05T09:34:18.805Z,444.38
2018-06-05T09:35:18.808Z,450.00
2018-06-05T09:36:18.835Z,450.00
2018-06-05T09:37:18.842Z,450.00
2018-06-05T09:38:18.852Z,444.38
2018-06-05T09:39:18.880Z,444.38
2018-06-05T09:40:18.892Z,444.38
2018-06-05T09:41:18.924Z,444.38
2018-06-05T09:42:18.961Z,444.38
2018-06-05T09:43:18.971Z,444.38
2018-06-05T09:44:18.980Z,450.00
2018-06-05T09:45:19.055Z,444.38
2018-06-05T09:46:19.021Z,444.38
2018-06-05T09:47:19.061Z,444.38
2018-06-05T09:48:19.090Z,438.75
2018-06-05T09:49:19.111Z,438.75
2018-06-05T09:50:19.119Z,444.38
2018-06-05T09:51:19.136Z,444.38
2018-06-05T09:52:19.170Z,461.25
2018-06-05T09:53:19.182Z,461.25
2018-06-05T09:54:19.210Z,472.50
2018-06-05T09:55:19.237Z,472.50
2018-06-05T09:56:19.257Z,472.50
2018-06-05T09:57:19.276Z,472.50
2018-06-05T09:58:19.395Z,466.88
2018-06-05T09:59:19.346Z,472.50
2018-06-05T10:00:19.359Z,466.88
2018-06-05T10:01:19.356Z,461.25
2018-06-05T10:02:19.378Z,455.63
2018-06-05T10:03:19.439Z,455.63
2018-06-05T10:04:19.460Z,455.63
2018-06-05T10:05:19.465Z,466.88
2018-06-05T10:06:19.506Z,478.13
2018-06-05T10:07:19.498Z,483.75
2018-06-05T10:08:19.531Z,489.38
2018-06-05T10:09:19.551Z,500.63
2018-06-05T10:10:19.575Z,506.25
2018-06-05T10:11:19.585Z,500.63
2018-06-05T10:12:19.615Z,500.63
2018-06-05T10:13:19.648Z,500.63
2018-06-05T10:14:19.666Z,500.63
2018-06-05T10:15:19.676Z,506.25
2018-06-05T10:16:19.741Z,511.88
2018-06-05T10:17:19.737Z,511.88
2018-06-05T10:18:19.765Z,511.88
2018-06-05T10:19:19.771Z,511.88
2018-06-05T10:20:19.825Z,517.50
2018-06-05T10:21:19.825Z,517.50
2018-06-05T10:22:19.859Z,523.13
2018-06-05T10:23:19.868Z,528.75
2018-06-05T10:24:19.899Z,534.38
2018-06-05T10:25:19.908Z,540.00
2018-06-05T10:26:19.931Z,551.25
2018-06-05T10:27:19.966Z,551.25
2018-06-05T10:28:19.991Z,562.50
2018-06-05T10:29:20.020Z,568.13
2018-06-05T10:30:20.032Z,573.75
2018-06-05T10:31:20.063Z,573.75
2018-06-05T10:32:20.095Z,573.75
2018-06-05T10:33:20.107Z,585.00
2018-06-05T10:34:20.129Z,579.38
2018-06-05T10:35:20.153Z,579.38
2018-06-05T10:36:20.172Z,573.75
2018-06-05T10:37:20.211Z,573.75
2018-06-05T10:38:20.217Z,585.00
2018-06-05T10:39:20.232Z,601.88
2018-06-05T10:40:20.256Z,613.13
2018-06-05T10:41:20.309Z,624.38
2018-06-05T10:42:20.328Z,641.25
2018-06-05T10:43:20.326Z,652.50
2018-06-05T10:44:20.357Z,658.13
2018-06-05T10:45:20.389Z,663.75
2018-06-05T10:46:20.414Z,680.63
2018-06-05T10:47:20.427Z,680.63
2018-06-05T10:48:20.487Z,686.25
2018-06-05T10:49:20.472Z,686.25
2018-06-05T10:50:20.497Z,680.63
2018-06-05T10:51:20.521Z,663.75
2018-06-05T10:52:20.541Z,652.50
2018-06-05T10:53:20.558Z,641.25
2018-06-05T10:54:20.588Z,635.63
2018-06-05T10:55:20.622Z,624.38
2018-06-05T10:56:20.647Z,624.38
2018-06-05T10:57:20.677Z,607.50
2018-06-05T10:58:20.675Z,613.13
2018-06-05T10:59:20.725Z,630.00
2018-06-05T11:00:20.760Z,641.25
2018-06-05T11:01:20.768Z,658.13
2018-06-05T11:02:20.776Z,663.75
2018-06-05T11:03:20.793Z,663.75
2018-06-05T11:04:20.839Z,652.50
2018-06-05T11:05:20.848Z,635.63
2018-06-05T11:06:20.868Z,624.38
2018-06-05T11:07:20.896Z,624.38
2018-06-05T11:08:20.912Z,630.00
2018-06-05T11:09:20.940Z,641.25
2018-06-05T11:10:20.967Z,646.88
2018-06-05T11:11:20.984Z,658.13
2018-06-05T11:12:21.018Z,669.38
2018-06-05T11:13:21.045Z,680.63
2018-06-05T11:14:21.059Z,691.88
2018-06-05T11:15:21.096Z,708.75
2018-06-05T11:16:21.121Z,731.25
2018-06-05T11:17:21.127Z,742.50
2018-06-05T11:18:21.199Z,759.38
2018-06-05T11:19:21.177Z,776.25
2018-06-05T11:20:21.196Z,781.88
2018-06-05T11:21:21.220Z,781.88
2018-06-05T11:22:21.248Z,781.88
2018-06-05T11:23:21.280Z,793.13
2018-06-05T11:24:21.303Z,793.13
2018-06-05T11:25:21.336Z,798.75
2018-06-05T11:26:21.335Z,793.13
2018-06-05T11:27:21.370Z,793.13
2018-06-05T11:28:21.412Z,798.75
2018-06-05T11:29:21.409Z,793.13
2018-06-05T11:30:21.452Z,793.13
2018-06-05T11:31:21.461Z,781.88
2018-06-05T11:32:21.493Z,776.25
2018-06-05T11:33:21.507Z,776.25
2018-06-05T11:34:21.539Z,781.88
2018-06-05T11:35:21.557Z,787.50
2018-06-05T11:36:21.591Z,798.75
2018-06-05T11:37:21.615Z,804.38
2018-06-05T11:38:21.630Z,810.00
2018-06-05T11:39:21.674Z,815.63
2018-06-05T11:40:21.682Z,804.38
2018-06-05T11:41:21.700Z,798.75
2018-06-05T11:42:21.725Z,793.13
2018-06-05T11:43:21.751Z,787.50
2018-06-05T11:44:21.774Z,781.88
2018-06-05T11:45:21.791Z,781.88
2018-06-05T11:46:21.818Z,770.63
2018-06-05T11:47:21.848Z,770.63
2018-06-05T11:48:21.885Z,781.88
2018-06-05T11:49:21.895Z,770.63
2018-06-05T11:50:21.922Z,787.50
2018-06-05T11:51:21.936Z,759.38
2018-06-05T11:52:21.969Z,742.50
2018-06-05T11:53:21.984Z,731.25
2018-06-05T11:54:22.005Z,720.00
2018-06-05T11:55:22.053Z,703.13
2018-06-05T11:56:22.053Z,708.75
2018-06-05T11:57:22.077Z,720.00
2018-06-05T11:58:22.103Z,725.63
2018-06-05T11:59:22.159Z,731.25
2018-06-05T12:00:22.151Z,765.00
2018-06-05T12:01:22.175Z,742.50
2018-06-05T12:02:22.207Z,708.75
2018-06-05T12:03:22.231Z,708.75
2018-06-05T12:04:22.247Z,686.25
2018-06-05T12:05:22.271Z,680.63
2018-06-05T12:06:22.292Z,736.88
2018-06-05T12:07:22.319Z,708.75
2018-06-05T12:08:22.348Z,703.13
2018-06-05T12:09:22.374Z,725.63
2018-06-05T12:10:22.420Z,697.50
2018-06-05T12:11:22.430Z,691.88
2018-06-05T12:12:22.452Z,675.00
2018-06-05T12:13:22.471Z,663.75
2018-06-05T12:14:22.498Z,658.13
2018-06-05T12:15:22.536Z,658.13
2018-06-05T12:16:22.542Z,652.50
2018-06-05T12:17:22.569Z,641.25
2018-06-05T12:18:22.597Z,635.63
2018-06-05T12:19:22.612Z,630.00
2018-06-05T12:20:22.638Z,624.38
2018-06-05T12:21:22.664Z,618.75
2018-06-05T12:22:22.684Z,613.13
2018-06-05T12:23:22.707Z,646.88
2018-06-05T12:24:22.753Z,596.25
2018-06-05T12:25:22.799Z,545.63
2018-06-05T12:26:22.801Z,506.25
2018-06-05T12:27:22.808Z,478.13
2018-06-05T12:28:22.835Z,450.00
2018-06-05T12:29:22.867Z,427.50
2018-06-05T12:30:22.887Z,410.63
2018-06-05T12:31:22.902Z,405.00
2018-06-05T12:32:22.928Z,416.25
2018-06-05T12:33:22.951Z,438.75
2018-06-05T12:34:22.979Z,455.63
2018-06-05T12:35:23.003Z,461.25
2018-06-05T12:36:23.026Z,506.25
2018-06-05T12:37:23.060Z,506.25
2018-06-05T12:38:23.080Z,517.50
2018-06-05T12:39:23.107Z,517.50
2018-06-05T12:40:23.130Z,511.88
2018-06-05T12:41:23.163Z,495.00
2018-06-05T12:42:23.166Z,478.13
2018-06-05T12:43:23.211Z,444.38
2018-06-05T12:44:23.226Z,421.88
2018-06-05T12:45:23.244Z,388.13
2018-06-05T12:46:23.303Z,376.88